GLO2140 SBSV-SBKG
Flight info
| Callsign | GLO2140 |
|---|---|
| Flight time | 0h 58m |
| Altitude | 37000 |
| Route | ASGIK UZ73 EDRIM UZ84 ASEVA DCT |
| Aircraft | B738/M-SDFGIKLORWXY/LB1 |
Departure
| Time | 2026-05-08 04:32 |
|---|---|
| Airport | Deputado Luiz Eduardo Magalhães International Airport (SBSV) |
Arrival
| Time | 2026-05-08 05:30 |
|---|---|
| Airport | Presidente João Suassuna Airport (SBKG) |
| Time | Latitude | Longitude | Altitude | Speed | Heading |
|---|---|---|---|---|---|
| 2026-05-08 04:22 | -12.91497 | -38.33335 | 43 ft | 0 kts | 354° |
| 2026-05-08 04:26 | -12.91506 | -38.33334 | 43 ft | 4 kts | 355° |
| 2026-05-08 04:27 | -12.91529 | -38.33333 | 43 ft | 4 kts | 21° |
| 2026-05-08 04:27 | -12.91547 | -38.33349 | 37 ft | 4 kts | 68° |
| 2026-05-08 04:27 | -12.91551 | -38.33363 | 41 ft | 1 kts | 81° |
| 2026-05-08 04:27 | -12.91552 | -38.33367 | 43 ft | 0 kts | 81° |
| 2026-05-08 04:29 | -12.91547 | -38.33338 | 43 ft | 9 kts | 81° |
| 2026-05-08 04:29 | -12.91531 | -38.33246 | 41 ft | 17 kts | 79° |
| 2026-05-08 04:30 | -12.91472 | -38.33145 | 43 ft | 17 kts | 22° |
| 2026-05-08 04:30 | -12.91354 | -38.33155 | 43 ft | 17 kts | 348° |
| 2026-05-08 04:30 | -12.91241 | -38.33178 | 43 ft | 16 kts | 345° |
| 2026-05-08 04:30 | -12.91220 | -38.33276 | 43 ft | 16 kts | 261° |
| 2026-05-08 04:31 | -12.91196 | -38.33380 | 41 ft | 15 kts | 297° |
| 2026-05-08 04:31 | -12.91137 | -38.33465 | 42 ft | 14 kts | 311° |
| 2026-05-08 04:31 | -12.91097 | -38.33456 | 43 ft | 7 kts | 83° |
| 2026-05-08 04:31 | -12.91083 | -38.33384 | 41 ft | 21 kts | 78° |
| 2026-05-08 04:32 | -12.91005 | -38.32991 | 46 ft | 90 kts | 78° |
| 2026-05-08 04:32 | -12.90838 | -38.32163 | 48 ft | 146 kts | 78° |
| 2026-05-08 04:32 | -12.90611 | -38.31025 | 345 ft | 166 kts | 79° |
| 2026-05-08 04:32 | -12.90362 | -38.29892 | 1092 ft | 162 kts | 78° |
| 2026-05-08 04:33 | -12.90089 | -38.28754 | 1726 ft | 167 kts | 77° |
| 2026-05-08 04:33 | -12.89662 | -38.27587 | 2119 ft | 193 kts | 52° |
| 2026-05-08 04:33 | -12.88415 | -38.26917 | 2346 ft | 224 kts | 7° |
| 2026-05-08 04:33 | -12.86768 | -38.26907 | 2566 ft | 249 kts | 12° |
| 2026-05-08 04:34 | -12.85060 | -38.26412 | 3031 ft | 260 kts | 20° |
| 2026-05-08 04:34 | -12.83301 | -38.25884 | 3708 ft | 265 kts | 19° |
| 2026-05-08 04:34 | -12.81512 | -38.25371 | 4446 ft | 269 kts | 18° |
| 2026-05-08 04:34 | -12.79693 | -38.24852 | 5147 ft | 273 kts | 18° |
| 2026-05-08 04:35 | -12.77849 | -38.24325 | 5850 ft | 278 kts | 19° |
| 2026-05-08 04:35 | -12.75973 | -38.23787 | 6556 ft | 282 kts | 19° |
| 2026-05-08 04:35 | -12.74071 | -38.23240 | 7263 ft | 285 kts | 19° |
| 2026-05-08 04:35 | -12.72160 | -38.22690 | 8036 ft | 286 kts | 19° |
| 2026-05-08 04:36 | -12.70229 | -38.22132 | 8800 ft | 288 kts | 18° |
| 2026-05-08 04:36 | -12.68294 | -38.21573 | 9584 ft | 291 kts | 19° |
| 2026-05-08 04:36 | -12.66365 | -38.21014 | 10326 ft | 294 kts | 19° |
| 2026-05-08 04:36 | -12.64324 | -38.20421 | 10571 ft | 317 kts | 18° |
| 2026-05-08 04:37 | -12.62132 | -38.19781 | 10743 ft | 339 kts | 18° |
| 2026-05-08 04:37 | -12.59792 | -38.19101 | 10890 ft | 359 kts | 18° |
| 2026-05-08 04:37 | -12.57344 | -38.18391 | 11190 ft | 371 kts | 18° |
| 2026-05-08 04:37 | -12.54844 | -38.17668 | 11726 ft | 375 kts | 18° |
| 2026-05-08 04:38 | -12.52323 | -38.16940 | 12388 ft | 376 kts | 18° |
| 2026-05-08 04:38 | -12.49792 | -38.16209 | 13053 ft | 378 kts | 17° |
| 2026-05-08 04:38 | -12.47255 | -38.15475 | 13693 ft | 380 kts | 17° |
| 2026-05-08 04:38 | -12.44694 | -38.14735 | 14257 ft | 384 kts | 17° |
| 2026-05-08 04:39 | -12.42108 | -38.13986 | 14768 ft | 388 kts | 17° |
| 2026-05-08 04:39 | -12.39518 | -38.13236 | 15231 ft | 395 kts | 17° |
| 2026-05-08 04:39 | -12.36862 | -38.12467 | 15721 ft | 399 kts | 17° |
| 2026-05-08 04:39 | -12.34170 | -38.11688 | 16243 ft | 403 kts | 16° |
| 2026-05-08 04:40 | -12.31459 | -38.10904 | 16742 ft | 407 kts | 16° |
| 2026-05-08 04:40 | -12.28713 | -38.10110 | 17223 ft | 412 kts | 16° |
| 2026-05-08 04:40 | -12.25943 | -38.09309 | 17684 ft | 416 kts | 16° |
| 2026-05-08 04:40 | -12.23141 | -38.08499 | 18144 ft | 421 kts | 16° |
| 2026-05-08 04:41 | -12.20311 | -38.07681 | 18555 ft | 424 kts | 15° |
| 2026-05-08 04:41 | -12.17463 | -38.06858 | 18992 ft | 427 kts | 15° |
| 2026-05-08 04:41 | -12.14596 | -38.06029 | 19443 ft | 428 kts | 15° |
| 2026-05-08 04:41 | -12.11713 | -38.05196 | 19878 ft | 431 kts | 15° |
| 2026-05-08 04:42 | -12.08819 | -38.04360 | 20293 ft | 433 kts | 15° |
| 2026-05-08 04:42 | -12.05908 | -38.03519 | 20700 ft | 436 kts | 15° |
| 2026-05-08 04:42 | -12.03009 | -38.02682 | 21101 ft | 439 kts | 15° |
| 2026-05-08 04:42 | -12.00064 | -38.01832 | 21501 ft | 441 kts | 15° |
| 2026-05-08 04:43 | -11.97094 | -38.00975 | 21898 ft | 443 kts | 15° |
| 2026-05-08 04:43 | -11.94110 | -38.00114 | 22274 ft | 446 kts | 15° |
| 2026-05-08 04:43 | -11.91116 | -37.99251 | 22649 ft | 448 kts | 15° |
| 2026-05-08 04:43 | -11.88099 | -37.98381 | 23016 ft | 451 kts | 15° |
| 2026-05-08 04:44 | -11.85071 | -37.97507 | 23375 ft | 453 kts | 15° |
| 2026-05-08 04:44 | -11.82029 | -37.96630 | 23710 ft | 455 kts | 14° |
| 2026-05-08 04:44 | -11.78977 | -37.95751 | 23991 ft | 457 kts | 14° |
| 2026-05-08 04:44 | -11.75946 | -37.94877 | 24279 ft | 459 kts | 14° |
| 2026-05-08 04:45 | -11.72871 | -37.93991 | 24604 ft | 459 kts | 14° |
| 2026-05-08 04:45 | -11.69791 | -37.93104 | 24884 ft | 462 kts | 14° |
| 2026-05-08 04:45 | -11.66692 | -37.92212 | 25126 ft | 464 kts | 14° |
| 2026-05-08 04:45 | -11.63576 | -37.91315 | 25376 ft | 466 kts | 14° |
| 2026-05-08 04:46 | -11.60447 | -37.90414 | 25629 ft | 468 kts | 14° |
| 2026-05-08 04:46 | -11.57299 | -37.89508 | 25884 ft | 470 kts | 13° |
| 2026-05-08 04:46 | -11.54145 | -37.88600 | 26141 ft | 472 kts | 13° |
| 2026-05-08 04:46 | -11.50982 | -37.87690 | 26374 ft | 474 kts | 13° |
| 2026-05-08 04:47 | -11.47797 | -37.86775 | 26594 ft | 476 kts | 13° |
| 2026-05-08 04:47 | -11.44591 | -37.85865 | 26812 ft | 477 kts | 13° |
| 2026-05-08 04:47 | -11.41371 | -37.84996 | 27031 ft | 479 kts | 12° |
| 2026-05-08 04:47 | -11.38135 | -37.84147 | 27248 ft | 481 kts | 12° |
| 2026-05-08 04:48 | -11.34886 | -37.83301 | 27453 ft | 483 kts | 12° |
| 2026-05-08 04:48 | -11.31656 | -37.82459 | 27653 ft | 484 kts | 12° |
| 2026-05-08 04:48 | -11.28386 | -37.81603 | 27856 ft | 485 kts | 11° |
| 2026-05-08 04:48 | -11.25107 | -37.80740 | 28066 ft | 486 kts | 11° |
| 2026-05-08 04:49 | -11.21818 | -37.79871 | 28238 ft | 488 kts | 11° |
| 2026-05-08 04:49 | -11.18519 | -37.78999 | 28417 ft | 490 kts | 11° |
| 2026-05-08 04:49 | -11.15220 | -37.78126 | 28665 ft | 490 kts | 11° |
| 2026-05-08 04:49 | -11.11920 | -37.77253 | 28950 ft | 489 kts | 11° |
| 2026-05-08 04:50 | -11.08628 | -37.76382 | 29239 ft | 488 kts | 11° |
| 2026-05-08 04:50 | -11.05386 | -37.75524 | 29490 ft | 488 kts | 11° |
| 2026-05-08 04:50 | -11.02088 | -37.74653 | 29738 ft | 488 kts | 10° |
| 2026-05-08 04:50 | -10.98807 | -37.73785 | 30097 ft | 485 kts | 10° |
| 2026-05-08 04:51 | -10.95544 | -37.72923 | 30392 ft | 484 kts | 10° |
| 2026-05-08 04:51 | -10.92273 | -37.72059 | 30634 ft | 484 kts | 10° |
| 2026-05-08 04:51 | -10.89017 | -37.71200 | 30878 ft | 483 kts | 10° |
| 2026-05-08 04:51 | -10.85770 | -37.70343 | 31209 ft | 480 kts | 10° |
| 2026-05-08 04:52 | -10.82541 | -37.69491 | 31557 ft | 478 kts | 10° |
| 2026-05-08 04:52 | -10.79324 | -37.68642 | 31832 ft | 477 kts | 10° |
| 2026-05-08 04:52 | -10.76151 | -37.67806 | 32081 ft | 477 kts | 10° |
| 2026-05-08 04:52 | -10.72937 | -37.66959 | 32334 ft | 477 kts | 10° |
| 2026-05-08 04:53 | -10.69720 | -37.66111 | 32629 ft | 476 kts | 10° |
| 2026-05-08 04:53 | -10.66511 | -37.65265 | 32925 ft | 475 kts | 10° |
| 2026-05-08 04:53 | -10.63312 | -37.64422 | 33227 ft | 474 kts | 10° |
| 2026-05-08 04:53 | -10.60112 | -37.63579 | 33524 ft | 473 kts | 10° |
| 2026-05-08 04:54 | -10.56967 | -37.62751 | 33808 ft | 473 kts | 10° |
| 2026-05-08 04:54 | -10.53786 | -37.61913 | 34102 ft | 472 kts | 10° |
| 2026-05-08 04:54 | -10.50606 | -37.61076 | 34376 ft | 471 kts | 10° |
| 2026-05-08 04:54 | -10.47428 | -37.60240 | 34629 ft | 471 kts | 10° |
| 2026-05-08 04:55 | -10.44263 | -37.59407 | 34891 ft | 469 kts | 10° |
| 2026-05-08 04:55 | -10.41102 | -37.58576 | 35183 ft | 468 kts | 10° |
| 2026-05-08 04:55 | -10.37943 | -37.57746 | 35451 ft | 467 kts | 10° |
| 2026-05-08 04:55 | -10.34822 | -37.56925 | 35694 ft | 467 kts | 10° |
| 2026-05-08 04:56 | -10.31683 | -37.56100 | 35943 ft | 466 kts | 10° |
| 2026-05-08 04:56 | -10.28533 | -37.55273 | 36201 ft | 465 kts | 10° |
| 2026-05-08 04:56 | -10.25391 | -37.54447 | 36462 ft | 465 kts | 10° |
| 2026-05-08 04:56 | -10.22255 | -37.53623 | 36710 ft | 464 kts | 10° |
| 2026-05-08 04:57 | -10.19124 | -37.52801 | 36957 ft | 464 kts | 10° |
| 2026-05-08 04:57 | -10.16043 | -37.51992 | 36986 ft | 462 kts | 11° |
| 2026-05-08 04:57 | -10.09837 | -37.50362 | 37003 ft | 460 kts | 11° |
| 2026-05-08 04:58 | -10.03620 | -37.48732 | 37014 ft | 462 kts | 11° |
| 2026-05-08 04:58 | -9.97413 | -37.47105 | 37022 ft | 463 kts | 11° |
| 2026-05-08 04:59 | -9.91168 | -37.45467 | 37001 ft | 464 kts | 11° |
| 2026-05-08 04:59 | -9.84917 | -37.43828 | 37002 ft | 462 kts | 11° |
| 2026-05-08 05:00 | -9.78713 | -37.42202 | 37001 ft | 461 kts | 11° |
| 2026-05-08 05:00 | -9.72494 | -37.40573 | 37008 ft | 460 kts | 11° |
| 2026-05-08 05:01 | -9.66274 | -37.38945 | 36999 ft | 460 kts | 11° |
| 2026-05-08 05:01 | -9.60120 | -37.37334 | 37003 ft | 459 kts | 10° |
| 2026-05-08 05:02 | -9.53933 | -37.35716 | 36993 ft | 458 kts | 10° |
| 2026-05-08 05:02 | -9.47764 | -37.34102 | 37003 ft | 457 kts | 10° |
| 2026-05-08 05:03 | -9.41609 | -37.32494 | 37007 ft | 457 kts | 10° |
| 2026-05-08 05:03 | -9.35441 | -37.30882 | 37004 ft | 456 kts | 10° |
| 2026-05-08 05:04 | -9.29328 | -37.29285 | 37005 ft | 456 kts | 10° |
| 2026-05-08 05:04 | -9.23178 | -37.27679 | 37005 ft | 456 kts | 10° |
| 2026-05-08 05:05 | -9.17013 | -37.26070 | 37009 ft | 456 kts | 10° |
| 2026-05-08 05:05 | -9.10867 | -37.24466 | 37007 ft | 456 kts | 10° |
| 2026-05-08 05:06 | -9.04751 | -37.22870 | 37043 ft | 456 kts | 10° |
| 2026-05-08 05:06 | -8.98593 | -37.21264 | 37008 ft | 457 kts | 10° |
| 2026-05-08 05:07 | -8.92407 | -37.19656 | 37008 ft | 457 kts | 9° |
| 2026-05-08 05:07 | -8.86285 | -37.18071 | 37006 ft | 457 kts | 9° |
| 2026-05-08 05:08 | -8.80109 | -37.16471 | 37006 ft | 457 kts | 9° |
| 2026-05-08 05:08 | -8.73932 | -37.14870 | 37005 ft | 457 kts | 9° |
| 2026-05-08 05:09 | -8.67749 | -37.13268 | 37010 ft | 457 kts | 9° |
| 2026-05-08 05:09 | -8.61610 | -37.11678 | 37012 ft | 458 kts | 9° |
| 2026-05-08 05:10 | -8.52335 | -37.09277 | 37019 ft | 458 kts | 9° |
| 2026-05-08 05:11 | -8.46204 | -37.07687 | 37009 ft | 458 kts | 9° |
| 2026-05-08 05:11 | -8.40035 | -37.06087 | 37021 ft | 457 kts | 10° |
| 2026-05-08 05:11 | -8.36986 | -37.05293 | 36983 ft | 443 kts | 9° |
| 2026-05-08 05:12 | -8.34050 | -37.04526 | 36990 ft | 428 kts | 9° |
| 2026-05-08 05:12 | -8.31208 | -37.03784 | 36990 ft | 415 kts | 9° |
| 2026-05-08 05:12 | -8.28462 | -37.03051 | 36987 ft | 403 kts | 13° |
| 2026-05-08 05:12 | -8.25896 | -37.01925 | 36815 ft | 402 kts | 24° |
| 2026-05-08 05:13 | -8.23546 | -37.00391 | 36494 ft | 404 kts | 33° |
| 2026-05-08 05:13 | -8.21413 | -36.98514 | 36035 ft | 407 kts | 37° |
| 2026-05-08 05:13 | -8.19331 | -36.96579 | 35260 ft | 417 kts | 37° |
| 2026-05-08 05:13 | -8.17161 | -36.94550 | 34217 ft | 433 kts | 38° |
| 2026-05-08 05:14 | -8.14909 | -36.92446 | 32996 ft | 450 kts | 38° |
| 2026-05-08 05:14 | -8.12558 | -36.90258 | 31645 ft | 468 kts | 39° |
| 2026-05-08 05:14 | -8.10116 | -36.87990 | 30366 ft | 483 kts | 39° |
| 2026-05-08 05:14 | -8.08464 | -36.86458 | 29458 ft | 491 kts | 39° |
| 2026-05-08 05:15 | -8.05916 | -36.84097 | 28230 ft | 498 kts | 39° |
| 2026-05-08 05:15 | -8.03357 | -36.81726 | 27248 ft | 497 kts | 39° |
| 2026-05-08 05:15 | -8.00818 | -36.79375 | 26405 ft | 494 kts | 39° |
| 2026-05-08 05:15 | -7.98308 | -36.77053 | 25744 ft | 486 kts | 39° |
| 2026-05-08 05:16 | -7.95834 | -36.74765 | 25144 ft | 477 kts | 39° |
| 2026-05-08 05:16 | -7.93403 | -36.72520 | 24535 ft | 470 kts | 39° |
| 2026-05-08 05:16 | -7.91028 | -36.70328 | 23900 ft | 464 kts | 39° |
| 2026-05-08 05:16 | -7.88665 | -36.68149 | 23270 ft | 456 kts | 40° |
| 2026-05-08 05:17 | -7.86338 | -36.66004 | 22558 ft | 449 kts | 40° |
| 2026-05-08 05:17 | -7.84040 | -36.63887 | 21731 ft | 446 kts | 40° |
| 2026-05-08 05:17 | -7.81748 | -36.61777 | 20885 ft | 444 kts | 40° |
| 2026-05-08 05:17 | -7.79467 | -36.59676 | 20106 ft | 442 kts | 41° |
| 2026-05-08 05:18 | -7.77233 | -36.57618 | 19378 ft | 439 kts | 41° |
| 2026-05-08 05:18 | -7.74979 | -36.55542 | 18665 ft | 436 kts | 41° |
| 2026-05-08 05:18 | -7.72742 | -36.53481 | 17921 ft | 433 kts | 42° |
| 2026-05-08 05:18 | -7.70525 | -36.51439 | 17183 ft | 429 kts | 42° |
| 2026-05-08 05:19 | -7.68330 | -36.49418 | 16533 ft | 423 kts | 43° |
| 2026-05-08 05:19 | -7.66174 | -36.47432 | 15894 ft | 417 kts | 43° |
| 2026-05-08 05:19 | -7.64072 | -36.45496 | 15279 ft | 412 kts | 43° |
| 2026-05-08 05:19 | -7.61960 | -36.43552 | 14657 ft | 407 kts | 43° |
| 2026-05-08 05:20 | -7.59887 | -36.41644 | 14183 ft | 399 kts | 43° |
| 2026-05-08 05:20 | -7.57851 | -36.39770 | 13590 ft | 395 kts | 43° |
| 2026-05-08 05:20 | -7.55829 | -36.37909 | 12935 ft | 391 kts | 44° |
| 2026-05-08 05:20 | -7.53826 | -36.36066 | 12323 ft | 387 kts | 44° |
| 2026-05-08 05:21 | -7.51851 | -36.34249 | 11740 ft | 382 kts | 44° |
| 2026-05-08 05:21 | -7.49895 | -36.32450 | 11161 ft | 377 kts | 44° |
| 2026-05-08 05:21 | -7.47992 | -36.30700 | 10599 ft | 373 kts | 44° |
| 2026-05-08 05:21 | -7.46087 | -36.28947 | 10050 ft | 369 kts | 44° |
| 2026-05-08 05:22 | -7.44200 | -36.27212 | 9466 ft | 365 kts | 45° |
| 2026-05-08 05:22 | -7.42330 | -36.25492 | 8848 ft | 361 kts | 45° |
| 2026-05-08 05:22 | -7.40482 | -36.23793 | 8338 ft | 356 kts | 45° |
| 2026-05-08 05:22 | -7.38659 | -36.22117 | 7957 ft | 352 kts | 45° |
| 2026-05-08 05:23 | -7.36853 | -36.20456 | 7572 ft | 349 kts | 45° |
| 2026-05-08 05:23 | -7.35067 | -36.18813 | 7222 ft | 347 kts | 45° |
| 2026-05-08 05:23 | -7.33297 | -36.17187 | 6870 ft | 340 kts | 45° |
| 2026-05-08 05:23 | -7.31592 | -36.15620 | 6534 ft | 333 kts | 45° |
| 2026-05-08 05:24 | -7.29907 | -36.14072 | 6175 ft | 319 kts | 45° |
| 2026-05-08 05:24 | -7.28306 | -36.12602 | 5856 ft | 302 kts | 45° |
| 2026-05-08 05:24 | -7.26797 | -36.11219 | 5705 ft | 283 kts | 45° |
| 2026-05-08 05:24 | -7.25388 | -36.09927 | 5577 ft | 265 kts | 45° |
| 2026-05-08 05:25 | -7.23975 | -36.08806 | 5453 ft | 251 kts | 39° |
| 2026-05-08 05:25 | -7.22569 | -36.07834 | 5336 ft | 237 kts | 38° |
| 2026-05-08 05:25 | -7.21264 | -36.06938 | 5237 ft | 223 kts | 39° |
| 2026-05-08 05:25 | -7.20005 | -36.06066 | 5153 ft | 213 kts | 39° |
| 2026-05-08 05:26 | -7.18817 | -36.05232 | 4978 ft | 206 kts | 41° |
| 2026-05-08 05:26 | -7.17999 | -36.04145 | 4761 ft | 190 kts | 78° |
| 2026-05-08 05:26 | -7.17973 | -36.02871 | 4582 ft | 178 kts | 103° |
| 2026-05-08 05:26 | -7.18452 | -36.01752 | 4372 ft | 172 kts | 122° |
| 2026-05-08 05:27 | -7.19119 | -36.00776 | 4174 ft | 166 kts | 124° |
| 2026-05-08 05:27 | -7.19778 | -35.99844 | 3967 ft | 163 kts | 124° |
| 2026-05-08 05:27 | -7.20442 | -35.98902 | 3773 ft | 166 kts | 125° |
| 2026-05-08 05:27 | -7.21110 | -35.97953 | 3555 ft | 164 kts | 124° |
| 2026-05-08 05:28 | -7.21748 | -35.97048 | 3343 ft | 155 kts | 124° |
| 2026-05-08 05:28 | -7.22336 | -35.96210 | 3180 ft | 137 kts | 124° |
| 2026-05-08 05:28 | -7.22880 | -35.95434 | 2957 ft | 134 kts | 125° |
| 2026-05-08 05:28 | -7.23419 | -35.94666 | 2786 ft | 136 kts | 124° |
| 2026-05-08 05:29 | -7.23969 | -35.93879 | 2591 ft | 138 kts | 125° |
| 2026-05-08 05:29 | -7.24520 | -35.93092 | 2397 ft | 136 kts | 125° |
| 2026-05-08 05:29 | -7.25068 | -35.92309 | 2187 ft | 138 kts | 125° |
| 2026-05-08 05:29 | -7.25629 | -35.91504 | 2010 ft | 143 kts | 124° |
| 2026-05-08 05:30 | -7.26198 | -35.90687 | 1800 ft | 142 kts | 125° |
| 2026-05-08 05:30 | -7.26764 | -35.89882 | 1648 ft | 136 kts | 124° |
| 2026-05-08 05:30 | -7.27137 | -35.89350 | 1644 ft | 54 kts | 125° |
| 2026-05-08 05:30 | -7.27326 | -35.89079 | 1645 ft | 25 kts | 125° |
| 2026-05-08 05:31 | -7.27390 | -35.89030 | 1644 ft | 6 kts | 108° |
| 2026-05-08 05:31 | -7.27362 | -35.89030 | 1644 ft | 7 kts | 313° |
| 2026-05-08 05:31 | -7.27321 | -35.89087 | 1645 ft | 14 kts | 305° |
| 2026-05-08 05:31 | -7.27250 | -35.89189 | 1641 ft | 21 kts | 305° |
| 2026-05-08 05:32 | -7.27153 | -35.89328 | 1645 ft | 26 kts | 305° |
| 2026-05-08 05:32 | -7.27060 | -35.89459 | 1646 ft | 13 kts | 307° |
| 2026-05-08 05:32 | -7.26996 | -35.89452 | 1646 ft | 9 kts | 35° |
| 2026-05-08 05:32 | -7.26973 | -35.89438 | 1643 ft | 2 kts | 18° |
| 2026-05-08 05:33 | -7.26957 | -35.89432 | 1648 ft | 2 kts | 26° |
| 2026-05-08 05:33 | -7.26944 | -35.89424 | 1646 ft | 2 kts | 34° |
| 2026-05-08 05:33 | -7.26934 | -35.89417 | 1647 ft | 0 kts | 34° |
| 2026-05-08 05:34 | -7.26933 | -35.89417 | 1647 ft | 0 kts | 34° |